createdAt,value
2022-12-20T00:00:19.505Z,102445.16
2022-12-20T00:02:50.687Z,102449.12
2022-12-20T00:05:20.208Z,102443.73
2022-12-20T00:07:49.583Z,102438.80
2022-12-20T00:10:19.338Z,102431.14
2022-12-20T00:12:49.716Z,102431.46
2022-12-20T00:15:19.344Z,102428.44
2022-12-20T00:17:49.217Z,102415.85
2022-12-20T00:20:20.052Z,102408.86
2022-12-20T00:22:51.203Z,102408.86
2022-12-20T00:25:20.807Z,102405.47
2022-12-20T00:27:50.396Z,102402.54
2022-12-20T00:30:20.313Z,102395.66
2022-12-20T00:32:49.835Z,102395.66
2022-12-20T00:35:19.436Z,102381.28
2022-12-20T00:37:50.000Z,102373.97
2022-12-20T00:40:19.783Z,102373.97
2022-12-20T00:42:48.935Z,102374.56
2022-12-20T00:45:18.397Z,102365.61
2022-12-20T00:47:47.794Z,102359.33
2022-12-20T00:50:17.007Z,102364.16
2022-12-20T00:52:47.561Z,102355.72
2022-12-20T00:55:17.259Z,102353.39
2022-12-20T00:57:46.168Z,102362.30
2022-12-20T01:00:17.382Z,102361.89
2022-12-20T01:02:46.850Z,102359.33
2022-12-20T01:05:16.105Z,102360.36
2022-12-20T01:07:46.982Z,102350.81
2022-12-20T01:10:18.257Z,102358.43
2022-12-20T01:12:48.137Z,102360.12
2022-12-20T01:15:16.730Z,102355.47
2022-12-20T01:17:45.939Z,102340.45
2022-12-20T01:20:16.109Z,102336.14
2022-12-20T01:22:47.841Z,102336.36
2022-12-20T01:25:18.102Z,102337.46
2022-12-20T01:27:49.792Z,102330.58
2022-12-20T01:30:20.239Z,102336.16
2022-12-20T01:32:49.508Z,102333.99
2022-12-20T01:35:18.711Z,102331.42
2022-12-20T01:37:48.103Z,102322.14
2022-12-20T01:40:19.662Z,102321.42
2022-12-20T01:42:49.902Z,102337.63
2022-12-20T01:45:29.581Z,102312.39
2022-12-20T01:47:59.337Z,102308.02
2022-12-20T01:50:29.513Z,102300.98
2022-12-20T01:52:59.907Z,102284.11
2022-12-20T01:55:29.327Z,102284.11
2022-12-20T01:58:09.366Z,102282.77
2022-12-20T02:00:39.050Z,102278.25
2022-12-20T02:03:10.372Z,102284.98
2022-12-20T02:05:45.314Z,102281.44
2022-12-20T02:08:18.444Z,102275.68
2022-12-20T02:11:12.337Z,102271.67
2022-12-20T02:14:00.103Z,102260.87
2022-12-20T02:16:32.286Z,102241.22
2022-12-20T02:19:55.914Z,102221.22
2022-12-20T02:23:03.769Z,102221.22
2022-12-20T02:26:19.908Z,102220.13
2022-12-20T02:29:18.668Z,102218.15
2022-12-20T02:32:05.355Z,102218.15
2022-12-20T02:34:36.629Z,102222.05
2022-12-20T02:37:06.374Z,102206.93
2022-12-20T02:39:37.911Z,102199.58
2022-12-20T02:42:11.090Z,102199.58
2022-12-20T02:45:04.953Z,102194.73
2022-12-20T02:47:53.871Z,102192.69
2022-12-20T02:50:34.854Z,102197.30
2022-12-20T02:53:04.856Z,102197.13
2022-12-20T02:55:48.934Z,102194.72
2022-12-20T02:58:50.990Z,102186.09
2022-12-20T03:01:30.931Z,102186.84
2022-12-20T03:04:00.720Z,102174.60
2022-12-20T03:06:31.079Z,102155.78
2022-12-20T03:09:00.605Z,102155.19
2022-12-20T03:11:30.769Z,102155.94
2022-12-20T03:14:00.847Z,102157.61
2022-12-20T03:16:30.489Z,102149.84
2022-12-20T03:18:59.919Z,102138.94
2022-12-20T03:21:28.893Z,102142.28
2022-12-20T03:23:58.193Z,102136.39
2022-12-20T03:26:26.792Z,102136.27
2022-12-20T03:28:59.927Z,102136.53
2022-12-20T03:31:31.087Z,102135.06
2022-12-20T03:34:01.549Z,102128.66
2022-12-20T03:36:31.790Z,102129.39
2022-12-20T03:39:02.923Z,102127.05
2022-12-20T03:41:37.419Z,102115.79
2022-12-20T03:44:07.069Z,102122.36
2022-12-20T03:46:36.432Z,102114.64
2022-12-20T03:49:06.580Z,102106.06
2022-12-20T03:51:39.943Z,102097.95
2022-12-20T03:54:08.856Z,102086.22
2022-12-20T03:56:40.122Z,102081.66
2022-12-20T03:59:09.050Z,102086.95
2022-12-20T04:01:39.642Z,102079.30
2022-12-20T04:04:12.887Z,102073.87
2022-12-20T04:06:41.938Z,102064.41
2022-12-20T04:09:13.461Z,102045.58
2022-12-20T04:11:45.752Z,102048.19
2022-12-20T04:14:16.760Z,102034.63
2022-12-20T04:16:46.052Z,102019.73
2022-12-20T04:19:15.649Z,102017.78
2022-12-20T04:21:46.745Z,102018.51
2022-12-20T04:24:16.644Z,102007.62
2022-12-20T04:26:50.902Z,102014.19
2022-12-20T04:29:20.891Z,102007.34
2022-12-20T04:31:50.908Z,102008.13
2022-12-20T04:34:21.509Z,102009.73
2022-12-20T04:36:51.198Z,102005.95
2022-12-20T04:39:22.282Z,101995.90
2022-12-20T04:42:00.181Z,101989.84
2022-12-20T04:44:31.299Z,101988.27
2022-12-20T04:47:01.506Z,101980.06
2022-12-20T04:49:31.857Z,101974.94
2022-12-20T04:52:03.105Z,101985.84
2022-12-20T04:54:32.540Z,101977.64
2022-12-20T04:57:04.114Z,101971.17
2022-12-20T04:59:33.725Z,101970.39
2022-12-20T05:02:04.042Z,101955.39
2022-12-20T05:04:38.701Z,101957.36
2022-12-20T05:07:08.480Z,101949.94
2022-12-20T05:09:37.507Z,101952.86
2022-12-20T05:42:30.217Z,101884.14
2022-12-20T05:45:01.499Z,101887.39
2022-12-20T06:13:11.826Z,101845.77
2022-12-20T06:15:42.859Z,101844.77
2022-12-20T06:18:13.495Z,101835.22
2022-12-20T06:20:42.525Z,101820.48
2022-12-20T06:23:13.503Z,101832.05
2022-12-20T06:25:45.039Z,101820.70
2022-12-20T06:28:16.360Z,101824.52
2022-12-20T06:30:45.690Z,101826.14
2022-12-20T06:33:16.866Z,101825.36
2022-12-20T06:35:47.696Z,101826.41
2022-12-20T06:38:16.843Z,101830.53
2022-12-20T06:40:46.709Z,101823.03
2022-12-20T06:43:16.015Z,101825.81
2022-12-20T06:45:46.226Z,101820.05
2022-12-20T06:48:15.243Z,101818.40
2022-12-20T06:50:50.692Z,101825.78
2022-12-20T06:53:18.485Z,101832.12
2022-12-20T06:55:51.272Z,101818.75
2022-12-20T06:58:21.632Z,101823.27
2022-12-20T07:00:52.767Z,101814.33
2022-12-20T07:03:22.124Z,101805.30
2022-12-20T07:05:55.450Z,101799.92
2022-12-20T07:08:24.496Z,101793.98
2022-12-20T07:10:54.180Z,101794.27
2022-12-20T07:13:23.931Z,101790.06
2022-12-20T07:16:01.014Z,101792.48
2022-12-20T07:18:30.904Z,101789.52
2022-12-20T07:21:01.899Z,101787.51
2022-12-20T07:23:30.917Z,101793.97
2022-12-20T07:26:01.438Z,101800.03
2022-12-20T07:28:35.661Z,101803.50
2022-12-20T07:31:04.589Z,101799.28
2022-12-20T07:33:33.505Z,101794.13
2022-12-20T07:36:06.764Z,101783.75
2022-12-20T07:38:35.446Z,101787.70
2022-12-20T07:41:13.649Z,101785.78
2022-12-20T07:43:42.644Z,101788.86
2022-12-20T07:46:14.812Z,101790.59
2022-12-20T07:48:45.469Z,101783.86
2022-12-20T07:51:22.903Z,101777.52
2022-12-20T07:54:10.612Z,101789.92
2022-12-20T07:56:42.369Z,101780.41
2022-12-20T07:59:12.786Z,101770.80
2022-12-20T08:01:43.469Z,101776.88
2022-12-20T08:04:18.007Z,101766.97
2022-12-20T08:06:47.914Z,101764.66
2022-12-20T08:09:16.849Z,101761.48
2022-12-20T08:11:47.278Z,101761.30
2022-12-20T08:14:17.280Z,101763.13
2022-12-20T08:16:47.876Z,101768.03
2022-12-20T08:19:18.572Z,101767.55
2022-12-20T08:21:47.831Z,101769.37
2022-12-20T08:24:17.248Z,101779.19
2022-12-20T08:26:47.589Z,101776.40
2022-12-20T08:29:16.909Z,101768.33
2022-12-20T08:31:50.089Z,101766.88
2022-12-20T08:34:17.151Z,101764.96
2022-12-20T08:36:46.347Z,101755.44
2022-12-20T08:39:15.705Z,101744.95
2022-12-20T08:41:45.202Z,101751.11
2022-12-20T08:44:14.225Z,101751.41
2022-12-20T08:46:44.703Z,101746.31
2022-12-20T08:49:15.060Z,101742.66
2022-12-20T08:51:45.394Z,101742.08
2022-12-20T08:54:17.384Z,101719.86
2022-12-20T08:56:46.200Z,101719.66
2022-12-20T08:59:17.211Z,101712.73
2022-12-20T09:01:46.022Z,101709.08
2022-12-20T09:04:16.447Z,101707.34
2022-12-20T09:06:45.762Z,101705.90
2022-12-20T09:09:14.674Z,101700.70
2022-12-20T09:11:48.639Z,101702.43
2022-12-20T09:14:19.260Z,101697.04
2022-12-20T09:16:49.031Z,101699.64
2022-12-20T09:19:18.326Z,101692.73
2022-12-20T09:21:47.101Z,101690.43
2022-12-20T09:24:15.830Z,101688.41
2022-12-20T09:26:45.702Z,101687.23
2022-12-20T09:29:25.050Z,101677.61
2022-12-20T09:31:49.909Z,101662.30
2022-12-20T09:34:18.783Z,101670.29
2022-12-20T09:36:47.384Z,101654.88
2022-12-20T09:39:15.813Z,101646.31
2022-12-20T09:41:45.407Z,101651.98
2022-12-20T09:44:21.811Z,101655.93
2022-12-20T09:47:11.067Z,101645.62
2022-12-20T09:49:43.400Z,101639.66
2022-12-20T09:52:49.720Z,101630.60
2022-12-20T09:55:39.231Z,101621.93
2022-12-20T09:58:38.064Z,101615.95
2022-12-20T10:01:24.627Z,101622.11
2022-12-20T10:03:51.062Z,101606.31
2022-12-20T10:06:49.678Z,101609.77
2022-12-20T10:09:45.167Z,101596.67
2022-12-20T10:15:55.339Z,101574.14
2022-12-20T10:18:58.551Z,101571.48
2022-12-20T10:22:08.249Z,101566.78
2022-12-20T10:24:37.828Z,101561.11
2022-12-20T10:27:24.804Z,101545.42
2022-12-20T10:29:59.976Z,101548.22
2022-12-20T10:32:31.253Z,101545.73
2022-12-20T10:35:15.980Z,101539.96
2022-12-20T10:38:07.420Z,101539.38
2022-12-20T10:43:22.529Z,101523.97
2022-12-20T10:46:07.706Z,101514.42
2022-12-20T10:48:40.834Z,101506.83
2022-12-20T10:51:21.859Z,101500.47
2022-12-20T10:54:03.304Z,101494.97
2022-12-20T10:56:36.304Z,101493.90
2022-12-20T10:59:22.240Z,101498.70
2022-12-20T11:01:51.048Z,101490.02
2022-12-20T11:04:33.214Z,101502.91
2022-12-20T11:07:06.304Z,101490.78
2022-12-20T11:09:36.660Z,101485.77
2022-12-20T11:12:15.441Z,101481.24
2022-12-20T11:14:45.723Z,101483.83
2022-12-20T11:17:32.569Z,101471.70
2022-12-20T11:20:31.301Z,101473.80
2022-12-20T11:23:48.179Z,101471.59
2022-12-20T11:26:25.358Z,101454.83
2022-12-20T11:29:21.011Z,101448.95
2022-12-20T11:32:27.963Z,101434.88
2022-12-20T11:35:21.011Z,101447.12
2022-12-20T11:38:02.623Z,101441.73
2022-12-20T11:40:34.226Z,101430.19
2022-12-20T11:44:15.698Z,101422.96
2022-12-20T11:46:59.959Z,101411.21
2022-12-20T11:50:06.302Z,101404.25
2022-12-20T11:52:51.964Z,101397.52
2022-12-20T11:55:27.514Z,101386.62
2022-12-20T11:58:19.692Z,101378.80
2022-12-20T12:00:43.460Z,101378.31
2022-12-20T12:03:24.458Z,101375.13
2022-12-20T12:06:06.936Z,101363.86
2022-12-20T12:08:50.122Z,101360.79
2022-12-20T12:13:59.522Z,101345.47
2022-12-20T12:16:37.952Z,101350.00
2022-12-20T12:19:11.018Z,101355.77
2022-12-20T12:21:53.489Z,101353.19
2022-12-20T12:24:32.847Z,101348.81
2022-12-20T12:27:04.564Z,101351.99
2022-12-20T12:29:37.238Z,101358.73
2022-12-20T12:32:31.731Z,101357.02
2022-12-20T12:35:29.455Z,101358.36
2022-12-20T12:38:04.170Z,101366.07
2022-12-20T12:41:13.190Z,101365.20
2022-12-20T12:44:02.664Z,101370.11
2022-12-20T12:46:48.908Z,101362.41
2022-12-20T12:49:51.469Z,101366.45
2022-12-20T12:52:58.158Z,101358.95
2022-12-20T12:55:46.517Z,101362.52
2022-12-20T12:58:32.678Z,101365.70
2022-12-20T13:01:12.238Z,101357.23
2022-12-20T13:03:50.691Z,101361.77
2022-12-20T13:06:35.558Z,101355.88
2022-12-20T13:09:15.687Z,101350.48
2022-12-20T17:18:03.552Z,101135.89
2022-12-20T17:20:36.808Z,101129.53
2022-12-20T17:25:54.561Z,101126.23
2022-12-20T17:28:25.970Z,101123.32
2022-12-20T17:30:55.604Z,101124.44
2022-12-20T17:33:24.770Z,101112.20
2022-12-20T17:35:53.452Z,101103.89
2022-12-20T17:38:22.412Z,101108.67
2022-12-20T17:40:51.464Z,101112.00
2022-12-20T17:43:21.165Z,101110.05
2022-12-20T17:45:50.472Z,101107.73
2022-12-20T17:48:19.472Z,101098.67
2022-12-20T17:50:49.062Z,101097.47
2022-12-20T17:53:17.789Z,101094.55
2022-12-20T17:55:47.092Z,101088.92
2022-12-20T17:58:16.248Z,101086.23
2022-12-20T18:00:45.915Z,101088.32
2022-12-20T18:03:44.949Z,101073.75
2022-12-20T18:05:45.374Z,101080.38
2022-12-20T18:08:15.118Z,101078.80
2022-12-20T18:10:45.757Z,101080.52
2022-12-20T18:13:15.795Z,101074.14
2022-12-20T18:15:44.851Z,101074.52
2022-12-20T18:18:14.506Z,101068.52
2022-12-20T18:20:43.741Z,101072.45
2022-12-20T18:23:14.796Z,101065.47
2022-12-20T18:25:43.791Z,101062.28
2022-12-20T18:28:13.849Z,101065.35
2022-12-20T18:30:43.822Z,101065.23
2022-12-20T18:33:13.649Z,101058.38
2022-12-20T18:35:42.803Z,101052.98
2022-12-20T18:38:13.717Z,101060.95
2022-12-20T18:40:46.235Z,101052.01
2022-12-20T18:43:16.788Z,101048.70
2022-12-20T18:45:46.547Z,101052.75
2022-12-20T18:48:15.357Z,101060.34
2022-12-20T18:50:45.866Z,101052.87
2022-12-20T18:53:15.190Z,101043.31
2022-12-20T18:55:44.399Z,101043.80
2022-12-20T18:58:16.261Z,101050.54
2022-12-20T19:00:45.165Z,101045.27
2022-12-20T19:03:14.142Z,101048.08
2022-12-20T19:05:43.158Z,101039.13
2022-12-20T19:08:13.329Z,101036.92
2022-12-20T19:10:42.294Z,101041.83
2022-12-20T19:13:11.507Z,101039.13
2022-12-20T19:15:40.519Z,101032.64
2022-12-20T19:18:09.978Z,101028.59
2022-12-20T19:20:40.208Z,101028.11
2022-12-20T19:23:09.707Z,101020.39
2022-12-20T19:25:38.814Z,101016.34
2022-12-20T19:28:08.659Z,101027.13
2022-12-20T19:30:38.113Z,101024.80
2022-12-20T19:33:07.427Z,101022.11
2022-12-20T19:35:55.838Z,101015.37
2022-12-20T19:38:09.133Z,101016.02
2022-12-20T19:40:38.436Z,101005.72
2022-12-20T19:43:09.047Z,101009.16
2022-12-20T19:45:41.117Z,101003.77
2022-12-20T19:48:10.605Z,101010.76
2022-12-20T19:50:40.217Z,100998.13
2022-12-20T19:53:10.709Z,100995.80
2022-12-20T19:55:40.222Z,100990.41
2022-12-20T19:58:10.105Z,101000.22
2022-12-20T20:00:39.131Z,100992.50
2022-12-20T20:03:09.676Z,100994.70
2022-12-20T20:05:39.451Z,101000.95
2022-12-20T20:08:08.939Z,100998.63
2022-12-20T20:10:38.215Z,100996.79
2022-12-20T20:13:07.940Z,100996.67
2022-12-20T20:15:37.477Z,100988.95
2022-12-20T20:18:07.061Z,100988.95
2022-12-20T20:20:39.599Z,100987.97
2022-12-20T20:23:08.459Z,100983.31
2022-12-20T20:25:38.665Z,100980.62
2022-12-20T20:28:08.116Z,100976.20
2022-12-20T20:30:43.871Z,100981.59
2022-12-20T20:33:13.690Z,100982.70
2022-12-20T20:35:43.009Z,100976.94
2022-12-20T20:38:12.577Z,100973.63
2022-12-20T20:40:42.619Z,100985.16
2022-12-20T20:43:13.579Z,100986.50
2022-12-20T20:45:43.487Z,100984.17
2022-12-20T20:48:12.554Z,100984.55
2022-12-20T20:50:41.798Z,100980.50
2022-12-20T20:53:11.824Z,100981.84
2022-12-20T20:55:41.261Z,100990.80
2022-12-20T20:58:10.713Z,100987.61
2022-12-20T21:00:39.919Z,100985.41
2022-12-20T21:03:09.316Z,100982.70
2022-12-20T21:08:12.073Z,100978.17
2022-12-20T21:10:42.989Z,100975.47
2022-12-20T21:13:12.095Z,100974.37
2022-12-20T21:15:43.276Z,100967.13
2022-12-20T21:18:12.037Z,100963.58
2022-12-20T21:20:41.395Z,100966.64
2022-12-20T21:23:11.061Z,100973.75
2022-12-20T21:25:39.956Z,100969.59
2022-12-20T21:28:09.909Z,100965.91
2022-12-20T21:30:40.183Z,100973.52
2022-12-20T21:33:09.137Z,100967.99
2022-12-20T21:35:38.656Z,100969.71
2022-12-20T21:38:10.328Z,100970.08
2022-12-20T21:40:39.707Z,100968.36
2022-12-20T21:43:08.605Z,100979.40
2022-12-20T21:45:37.539Z,100978.42
2022-12-20T21:48:08.467Z,100972.04
2022-12-20T21:50:37.619Z,100971.67
2022-12-20T21:53:07.031Z,100967.25
2022-12-20T21:55:36.633Z,100972.16
2022-12-20T21:58:05.526Z,100979.28
2022-12-20T22:00:34.756Z,100966.64
2022-12-20T22:03:04.531Z,100960.39
2022-12-20T22:05:34.359Z,100959.41
2022-12-20T22:08:04.129Z,100959.77
2022-12-20T22:10:34.282Z,100952.91
2022-12-20T22:13:05.124Z,100950.70
2022-12-20T22:15:35.242Z,100955.73
2022-12-20T22:18:07.822Z,100954.63
2022-12-20T22:20:37.867Z,100949.22
2022-12-20T22:23:08.574Z,100951.31
2022-12-20T22:25:38.283Z,100935.61
2022-12-20T22:28:07.313Z,100933.77
2022-12-20T22:30:41.736Z,100935.48
2022-12-20T22:33:10.763Z,100947.99
2022-12-20T22:35:41.069Z,100945.66
2022-12-20T22:38:10.128Z,100952.28
2022-12-20T22:40:40.140Z,100955.35
2022-12-20T22:43:09.639Z,100946.27
2022-12-20T22:45:39.316Z,100950.69
2022-12-20T22:48:09.104Z,100943.33
2022-12-20T22:50:39.108Z,100943.20
2022-12-20T22:53:08.788Z,100938.66
2022-12-20T22:55:38.789Z,100935.59
2022-12-20T22:58:07.904Z,100929.34
2022-12-20T23:00:38.165Z,100920.02
2022-12-20T23:03:08.756Z,100927.12
2022-12-20T23:05:38.448Z,100925.41
2022-12-20T23:08:07.781Z,100920.38
2022-12-20T23:10:58.685Z,100917.68
2022-12-20T23:13:46.115Z,100914.00
2022-12-20T23:16:14.896Z,100909.95
2022-12-20T23:18:44.646Z,100908.97
2022-12-20T23:21:35.316Z,100901.23
2022-12-20T23:24:04.999Z,100901.61
2022-12-20T23:26:35.974Z,100900.63
2022-12-20T23:29:05.891Z,100895.59
2022-12-20T23:31:36.211Z,100890.55
2022-12-20T23:34:04.989Z,100887.48
2022-12-20T23:36:35.055Z,100883.44
2022-12-20T23:39:04.252Z,100888.34
2022-12-20T23:41:33.469Z,100885.16
2022-12-20T23:44:05.363Z,100889.11
2022-12-20T23:46:34.223Z,100879.66
2022-12-20T23:49:04.329Z,100881.74
2022-12-20T23:51:34.950Z,100874.01
2022-12-20T23:54:04.629Z,100871.19
2022-12-20T23:56:34.467Z,100875.97
2022-12-20T23:59:03.511Z,100880.50
